createdAt,value
2023-05-04T00:02:12.881Z,68.09
2023-05-04T00:04:42.692Z,68.49
2023-05-04T00:07:10.462Z,68.47
2023-05-04T00:09:38.081Z,67.71
2023-05-04T00:12:06.652Z,66.54
2023-05-04T00:14:34.220Z,66.57
2023-05-04T00:17:03.023Z,66.42
2023-05-04T00:19:30.666Z,66.14
2023-05-04T00:21:59.633Z,65.81
2023-05-04T00:24:27.307Z,66.28
2023-05-04T00:26:54.836Z,66.12
2023-05-04T00:29:23.974Z,65.84
2023-05-04T00:31:51.765Z,66.07
2023-05-04T00:34:19.473Z,66.03
2023-05-04T00:36:47.543Z,66.42
2023-05-04T00:39:16.465Z,66.24
2023-05-04T00:41:44.490Z,66.34
2023-05-04T00:44:12.549Z,66.11
2023-05-04T00:46:40.116Z,65.76
2023-05-04T00:49:08.872Z,65.48
2023-05-04T00:51:37.625Z,64.71
2023-05-04T00:54:05.893Z,64.76
2023-05-04T00:56:41.038Z,65.22
2023-05-04T00:59:08.634Z,65.33
2023-05-04T01:01:36.254Z,65.08
2023-05-04T01:04:04.157Z,64.55
2023-05-04T01:06:39.647Z,65.97
2023-05-04T01:09:12.337Z,66.14
2023-05-04T01:11:48.194Z,66.57
2023-05-04T01:14:15.844Z,66.30
2023-05-04T01:16:43.503Z,66.31
2023-05-04T01:19:11.403Z,67.34
2023-05-04T01:21:40.654Z,66.51
2023-05-04T01:24:08.329Z,66.43
2023-05-04T01:26:41.688Z,66.66
2023-05-04T01:29:15.797Z,66.20
2023-05-04T01:31:46.071Z,66.70
2023-05-04T01:34:14.462Z,67.04
2023-05-04T01:36:45.401Z,66.68
2023-05-04T01:39:13.060Z,67.32
2023-05-04T01:41:41.502Z,68.05
2023-05-04T01:44:09.170Z,67.22
2023-05-04T01:46:36.876Z,66.55
2023-05-04T01:49:04.591Z,67.30
2023-05-04T01:51:32.143Z,67.28
2023-05-04T01:54:01.329Z,67.72
2023-05-04T01:56:28.868Z,68.46
2023-05-04T01:58:56.475Z,67.93
2023-05-04T02:01:24.184Z,68.04
2023-05-04T02:03:52.126Z,68.44
2023-05-04T02:06:19.895Z,68.00
2023-05-04T02:08:47.804Z,68.53
2023-05-04T02:11:16.659Z,69.16
2023-05-04T02:13:44.402Z,69.00
2023-05-04T02:16:11.993Z,68.47
2023-05-04T02:18:39.723Z,69.04
2023-05-04T02:21:07.361Z,69.08
2023-05-04T02:23:35.119Z,69.21
2023-05-04T02:26:02.725Z,69.02
2023-05-04T02:28:31.631Z,69.82
2023-05-04T02:30:59.443Z,70.21
2023-05-04T02:33:27.051Z,71.32
2023-05-04T02:35:54.643Z,70.62
2023-05-04T02:38:22.287Z,71.12
2023-05-04T02:40:49.848Z,71.16
2023-05-04T02:43:17.509Z,71.06
2023-05-04T02:45:46.691Z,71.63
2023-05-04T02:48:14.301Z,71.73
2023-05-04T02:50:41.979Z,71.04
2023-05-04T02:53:09.562Z,70.76
2023-05-04T02:55:37.164Z,71.14
2023-05-04T02:58:04.730Z,71.42
2023-05-04T03:00:32.571Z,71.91
2023-05-04T03:03:01.712Z,71.48
2023-05-04T03:05:29.358Z,71.54
2023-05-04T03:07:57.169Z,71.60
2023-05-04T03:10:24.764Z,71.70
2023-05-04T03:12:52.395Z,72.09
2023-05-04T03:15:20.101Z,71.17
2023-05-04T03:17:47.859Z,72.09
2023-05-04T03:20:17.035Z,71.74
2023-05-04T03:22:44.745Z,72.76
2023-05-04T03:25:12.296Z,72.82
2023-05-04T03:27:39.878Z,72.75
2023-05-04T03:30:08.712Z,73.02
2023-05-04T03:32:36.428Z,73.40
2023-05-04T03:35:04.307Z,74.40
2023-05-04T03:37:33.231Z,74.04
2023-05-04T03:40:00.807Z,73.68
2023-05-04T03:42:28.515Z,73.84
2023-05-04T03:44:56.095Z,72.92
2023-05-04T03:47:23.818Z,72.91
2023-05-04T03:49:51.398Z,73.12
2023-05-04T03:52:19.005Z,72.38
2023-05-04T03:54:47.921Z,72.23
2023-05-04T03:57:15.603Z,73.04
2023-05-04T03:59:43.261Z,72.91
2023-05-04T04:02:10.845Z,72.71
2023-05-04T04:04:40.581Z,72.69
2023-05-04T04:07:08.344Z,73.01
2023-05-04T04:09:37.400Z,72.77
2023-05-04T04:12:06.769Z,72.93
2023-05-04T04:14:34.785Z,72.72
2023-05-04T04:17:02.437Z,72.34
2023-05-04T04:19:29.985Z,72.92
2023-05-04T04:21:58.948Z,71.41
2023-05-04T04:24:26.738Z,70.73
2023-05-04T04:26:54.301Z,69.82
2023-05-04T04:29:23.273Z,69.67
2023-05-04T04:31:51.092Z,68.35
2023-05-04T04:34:18.828Z,67.28
2023-05-04T04:36:46.464Z,66.80
2023-05-04T04:39:14.321Z,66.52
2023-05-04T04:41:41.971Z,67.60
2023-05-04T04:44:09.935Z,67.70
2023-05-04T04:46:38.850Z,66.17
2023-05-04T04:49:07.198Z,66.34
2023-05-04T04:51:34.999Z,66.00
2023-05-04T04:54:02.566Z,65.11
2023-05-04T04:56:30.560Z,64.50
2023-05-04T04:58:58.826Z,64.31
2023-05-04T05:01:27.280Z,63.65
2023-05-04T05:03:56.245Z,63.10
2023-05-04T05:06:23.982Z,62.27
2023-05-04T05:08:51.682Z,61.21
2023-05-04T05:11:19.568Z,60.55
2023-05-04T05:13:47.193Z,60.58
2023-05-04T05:16:14.788Z,59.94
2023-05-04T05:18:42.635Z,60.31
2023-05-04T05:21:14.064Z,60.50
2023-05-04T05:23:41.802Z,60.34
2023-05-04T05:26:09.335Z,60.76
2023-05-04T05:28:37.197Z,61.84
2023-05-04T05:31:05.195Z,59.35
2023-05-04T05:33:33.077Z,59.47
2023-05-04T05:36:00.702Z,58.82
2023-05-04T05:38:29.687Z,59.02
2023-05-04T05:40:57.263Z,57.68
2023-05-04T05:43:24.973Z,56.50
2023-05-04T05:45:52.720Z,54.90
2023-05-04T05:48:20.490Z,53.67
2023-05-04T05:50:48.053Z,52.81
2023-05-04T05:53:15.723Z,51.54
2023-05-04T05:55:44.916Z,51.38
2023-05-04T05:58:12.567Z,51.06
2023-05-04T06:00:40.298Z,49.82
2023-05-04T06:03:08.170Z,50.64
2023-05-04T06:05:36.203Z,51.95
2023-05-04T06:08:03.840Z,51.94
2023-05-04T06:10:31.467Z,51.49
2023-05-04T06:13:00.472Z,49.89
2023-05-04T06:15:28.112Z,48.34
2023-05-04T06:17:55.811Z,46.57
2023-05-04T06:20:23.677Z,49.26
2023-05-04T06:22:51.293Z,50.55
2023-05-04T06:25:18.982Z,49.60
2023-05-04T06:27:47.037Z,48.81
2023-05-04T06:30:19.541Z,45.60
2023-05-04T06:32:47.534Z,43.26
2023-05-04T06:35:15.190Z,45.83
2023-05-04T06:37:43.036Z,46.07
2023-05-04T06:40:12.509Z,46.92
2023-05-04T06:42:40.554Z,46.16
2023-05-04T06:45:09.558Z,45.34
2023-05-04T06:47:41.152Z,43.58
2023-05-04T06:50:10.408Z,41.37
2023-05-04T06:52:44.788Z,44.33
2023-05-04T06:55:12.621Z,43.41
2023-05-04T06:57:41.463Z,41.44
2023-05-04T07:00:10.586Z,40.11
2023-05-04T07:02:40.554Z,38.65
2023-05-04T07:05:09.313Z,39.98
2023-05-04T07:07:38.445Z,40.93
2023-05-04T07:10:07.082Z,39.97
2023-05-04T07:12:34.991Z,40.07
2023-05-04T07:15:02.649Z,41.79
2023-05-04T07:17:32.475Z,42.03
2023-05-04T07:20:03.587Z,40.86
2023-05-04T07:22:35.814Z,40.06
2023-05-04T07:25:03.896Z,41.27
2023-05-04T07:27:34.818Z,39.67
2023-05-04T07:30:02.852Z,37.86
2023-05-04T07:32:33.145Z,36.69
2023-05-04T07:35:14.508Z,34.59
2023-05-04T07:37:43.156Z,36.64
2023-05-04T07:40:11.796Z,40.32
2023-05-04T07:42:39.619Z,42.54
2023-05-04T07:45:09.702Z,45.48
2023-05-04T07:47:39.002Z,45.23
2023-05-04T07:50:09.347Z,44.77
2023-05-04T07:52:37.105Z,41.85
2023-05-04T07:55:05.467Z,38.58
2023-05-04T07:57:35.757Z,39.02
2023-05-04T08:00:04.835Z,40.05
2023-05-04T08:02:32.751Z,40.67
2023-05-04T08:05:00.455Z,42.48
2023-05-04T08:07:32.284Z,38.54
2023-05-04T08:10:00.221Z,39.71
2023-05-04T08:12:28.133Z,40.46
2023-05-04T08:14:55.952Z,40.11
2023-05-04T08:17:26.557Z,43.29
2023-05-04T08:19:54.884Z,41.59
2023-05-04T08:22:22.555Z,42.20
2023-05-04T08:24:54.920Z,42.86
2023-05-04T08:27:22.821Z,41.65
2023-05-04T08:29:50.564Z,40.94
2023-05-04T08:32:18.724Z,42.73
2023-05-04T08:34:46.417Z,42.70
2023-05-04T08:37:14.321Z,42.89
2023-05-04T08:39:43.446Z,43.17
2023-05-04T08:42:12.901Z,42.15
2023-05-04T08:44:43.316Z,41.34
2023-05-04T08:47:11.486Z,41.85
2023-05-04T08:49:39.112Z,44.53
2023-05-04T08:52:09.970Z,43.42
2023-05-04T08:54:47.050Z,42.23
2023-05-04T08:57:19.915Z,43.87
2023-05-04T08:59:52.322Z,43.58
2023-05-04T09:02:21.753Z,45.38
2023-05-04T09:04:50.263Z,45.36
2023-05-04T09:07:19.002Z,43.76
2023-05-04T09:09:47.454Z,45.47
2023-05-04T09:12:16.889Z,45.71
2023-05-04T09:14:46.546Z,47.17
2023-05-04T09:17:16.351Z,45.86
2023-05-04T09:19:44.653Z,45.44
2023-05-04T09:22:17.236Z,45.24
2023-05-04T09:24:45.620Z,45.01
2023-05-04T09:27:16.363Z,45.10
2023-05-04T09:29:45.624Z,47.24
2023-05-04T09:32:15.234Z,46.92
2023-05-04T09:34:50.793Z,45.60
2023-05-04T09:37:20.716Z,45.77
2023-05-04T09:39:57.715Z,45.66
2023-05-04T09:42:26.952Z,46.05
2023-05-04T09:45:04.157Z,46.89
2023-05-04T09:47:34.146Z,46.52
2023-05-04T09:50:12.630Z,46.22
2023-05-04T09:52:41.582Z,46.33
2023-05-04T09:55:13.680Z,46.29
2023-05-04T09:57:42.522Z,47.20
2023-05-04T10:00:19.482Z,46.23
2023-05-04T10:05:31.484Z,45.79
2023-05-04T10:08:13.951Z,45.73
2023-05-04T10:10:41.662Z,45.46
2023-05-04T10:13:09.363Z,44.97
2023-05-04T10:15:46.766Z,45.15
2023-05-04T10:18:30.770Z,43.94
2023-05-04T10:21:15.454Z,43.43
2023-05-04T10:24:01.857Z,42.46
2023-05-04T10:26:59.365Z,42.23
2023-05-04T10:29:31.542Z,42.60
2023-05-04T10:32:03.403Z,41.74
2023-05-04T10:34:33.228Z,41.12
2023-05-04T10:37:03.187Z,41.31
2023-05-04T10:39:32.426Z,41.32
2023-05-04T10:42:02.592Z,40.35
2023-05-04T10:44:33.176Z,39.31
2023-05-04T10:47:05.211Z,40.91
2023-05-04T10:49:33.742Z,40.93
2023-05-04T10:52:08.962Z,40.53
2023-05-04T10:54:37.154Z,41.29
2023-05-04T10:57:06.324Z,38.91
2023-05-04T10:59:36.718Z,38.92
2023-05-04T11:02:07.599Z,38.03
2023-05-04T11:04:36.268Z,39.15
2023-05-04T11:07:05.990Z,39.12
2023-05-04T11:09:38.687Z,39.20
2023-05-04T11:12:07.246Z,38.22
2023-05-04T11:14:41.303Z,38.74
2023-05-04T11:17:26.900Z,39.61
2023-05-04T11:19:56.490Z,38.73
2023-05-04T11:22:24.411Z,38.40
2023-05-04T11:24:53.662Z,39.49
2023-05-04T11:27:23.502Z,40.17
2023-05-04T11:29:56.633Z,38.62
2023-05-04T11:32:35.915Z,39.62
2023-05-04T11:35:04.382Z,39.79
2023-05-04T11:37:38.414Z,38.60
2023-05-04T11:40:10.794Z,38.02
2023-05-04T11:42:38.742Z,38.57
2023-05-04T11:45:09.620Z,38.13
2023-05-04T11:47:39.648Z,38.40
2023-05-04T11:50:12.846Z,37.48
2023-05-04T11:52:44.559Z,36.78
2023-05-04T11:55:20.730Z,36.66
2023-05-04T11:57:57.095Z,37.36
2023-05-04T12:00:35.621Z,37.74
2023-05-04T12:03:05.783Z,38.36
2023-05-04T12:05:36.517Z,36.69
2023-05-04T12:08:04.815Z,37.58
2023-05-04T12:10:34.826Z,36.50
2023-05-04T12:13:03.036Z,37.36
2023-05-04T12:15:33.298Z,36.90
2023-05-04T12:18:03.132Z,35.77
2023-05-04T12:26:50.249Z,36.02
2023-05-04T12:29:30.488Z,35.57
2023-05-04T12:31:58.363Z,36.52
2023-05-04T12:34:26.025Z,35.93
2023-05-04T12:36:55.417Z,36.92
2023-05-04T12:39:23.148Z,36.78
2023-05-04T12:41:50.862Z,37.21
2023-05-04T12:44:21.493Z,36.93
2023-05-04T12:46:49.343Z,36.79
2023-05-04T12:49:18.630Z,37.22
2023-05-04T12:51:46.465Z,36.91
2023-05-04T12:54:15.427Z,36.67
2023-05-04T12:56:43.314Z,36.24
2023-05-04T12:59:11.760Z,35.73
2023-05-04T13:01:40.844Z,36.95
2023-05-04T13:04:08.580Z,37.15
2023-05-04T13:06:36.592Z,36.47
2023-05-04T13:09:05.879Z,36.47
2023-05-04T13:11:35.388Z,36.01
2023-05-04T13:14:03.167Z,36.80
2023-05-04T13:16:31.185Z,36.95
2023-05-04T13:18:58.872Z,37.09
2023-05-04T13:21:26.579Z,36.49
2023-05-04T13:23:54.302Z,36.34
2023-05-04T13:26:21.984Z,37.45
2023-05-04T13:28:51.417Z,36.27
2023-05-04T13:31:19.355Z,36.16
2023-05-04T13:33:50.386Z,37.27
2023-05-04T13:36:18.041Z,36.86
2023-05-04T13:38:45.662Z,37.37
2023-05-04T13:41:13.509Z,36.99
2023-05-04T13:43:41.135Z,36.83
2023-05-04T13:46:10.335Z,37.04
2023-05-04T13:48:38.000Z,36.56
2023-05-04T13:51:06.094Z,35.67
2023-05-04T13:53:34.424Z,35.74
2023-05-04T13:56:02.879Z,35.96
2023-05-04T13:58:32.623Z,36.76
2023-05-04T14:01:01.095Z,37.34
2023-05-04T14:03:34.788Z,37.53
2023-05-04T14:06:02.413Z,37.08
2023-05-04T14:08:30.011Z,37.68
2023-05-04T14:10:58.540Z,37.50
2023-05-04T14:13:26.310Z,37.07
2023-05-04T14:15:55.083Z,36.81
2023-05-04T14:18:22.741Z,36.95
2023-05-04T14:20:51.628Z,37.50
2023-05-04T14:23:19.189Z,37.38
2023-05-04T14:25:51.374Z,37.83
2023-05-04T14:28:19.154Z,37.56
2023-05-04T14:30:51.215Z,36.71
2023-05-04T14:33:19.948Z,36.76
2023-05-04T14:35:48.774Z,37.97
2023-05-04T14:38:19.028Z,37.26
2023-05-04T14:40:48.984Z,37.28
2023-05-04T14:43:17.399Z,36.79
2023-05-04T14:45:44.962Z,37.17
2023-05-04T14:48:12.850Z,36.40
2023-05-04T14:50:51.319Z,36.18
2023-05-04T14:53:21.621Z,36.12
2023-05-04T14:55:49.476Z,36.87
2023-05-04T14:58:18.961Z,36.17
2023-05-04T15:03:32.128Z,36.02
2023-05-04T15:06:03.964Z,36.06
2023-05-04T15:08:34.696Z,36.14
2023-05-04T15:11:03.844Z,35.71
2023-05-04T15:13:38.118Z,35.74
2023-05-04T15:16:08.581Z,35.97
2023-05-04T15:18:37.288Z,35.25
2023-05-04T15:21:06.144Z,36.04
2023-05-04T15:23:38.551Z,35.43
2023-05-04T15:26:07.301Z,36.18
2023-05-04T15:28:36.426Z,35.74
2023-05-04T15:31:08.783Z,36.01
2023-05-04T15:33:37.568Z,35.72
2023-05-04T15:36:14.646Z,36.22
2023-05-04T15:38:44.783Z,36.16
2023-05-04T15:41:14.081Z,35.67
2023-05-04T15:43:41.724Z,36.00
2023-05-04T15:46:12.151Z,35.97
2023-05-04T15:48:40.065Z,35.68
2023-05-04T15:51:11.371Z,35.55
2023-05-04T15:53:39.147Z,35.27
2023-05-04T15:56:08.451Z,34.97
2023-05-04T15:58:36.115Z,35.54
2023-05-04T16:01:04.462Z,35.13
2023-05-04T16:03:33.479Z,35.36
2023-05-04T16:06:01.717Z,35.26
2023-05-04T16:08:29.375Z,35.85
2023-05-04T16:10:57.709Z,36.64
2023-05-04T16:13:28.324Z,36.01
2023-05-04T16:15:56.285Z,35.64
2023-05-04T16:18:25.107Z,36.04
2023-05-04T16:20:54.534Z,35.69
2023-05-04T16:23:22.152Z,36.24
2023-05-04T16:25:49.706Z,35.17
2023-05-04T16:28:17.326Z,35.43
2023-05-04T16:30:46.555Z,35.54
2023-05-04T16:33:14.713Z,35.80
2023-05-04T16:35:42.452Z,35.80
2023-05-04T16:38:12.145Z,35.51
2023-05-04T16:40:41.175Z,35.60
2023-05-04T16:43:12.207Z,35.65
2023-05-04T16:45:39.884Z,35.48
2023-05-04T16:48:08.955Z,36.24
2023-05-04T16:50:36.623Z,35.92
2023-05-04T16:53:04.346Z,35.64
2023-05-04T16:55:32.125Z,35.88
2023-05-04T16:58:03.429Z,35.84
2023-05-04T17:00:31.746Z,35.81
2023-05-04T17:03:02.233Z,35.98
2023-05-04T17:05:31.758Z,36.35
2023-05-04T17:07:59.651Z,36.43
2023-05-04T17:10:27.526Z,36.44
2023-05-04T17:12:57.224Z,36.29
2023-05-04T17:15:25.073Z,36.66
2023-05-04T17:17:56.714Z,36.30
2023-05-04T17:20:28.643Z,36.99
2023-05-04T17:22:59.021Z,36.90
2023-05-04T17:25:27.874Z,36.85
2023-05-04T17:27:55.774Z,36.68
2023-05-04T17:30:23.986Z,37.14
2023-05-04T17:32:54.813Z,36.84
2023-05-04T17:35:25.693Z,36.65
2023-05-04T17:37:57.639Z,37.34
2023-05-04T17:40:29.028Z,36.91
2023-05-04T17:43:04.282Z,36.90
2023-05-04T17:45:35.285Z,37.00
2023-05-04T17:48:04.317Z,37.25
2023-05-04T17:50:32.255Z,36.89
2023-05-04T17:52:59.880Z,37.55
2023-05-04T17:55:29.189Z,37.09
2023-05-04T17:57:58.114Z,37.53
2023-05-04T18:00:25.800Z,36.96
2023-05-04T18:02:53.639Z,37.94
2023-05-04T18:05:21.420Z,38.40
2023-05-04T18:07:53.397Z,37.29
2023-05-04T18:10:24.503Z,37.24
2023-05-04T18:13:00.530Z,37.38
2023-05-04T18:15:28.913Z,37.06
2023-05-04T18:17:56.656Z,36.95
2023-05-04T18:20:24.879Z,37.79
2023-05-04T18:22:52.667Z,37.94
2023-05-04T18:25:20.437Z,37.61
2023-05-04T18:27:48.030Z,38.33
2023-05-04T18:30:17.840Z,38.23
2023-05-04T18:32:46.525Z,38.53
2023-05-04T18:35:14.219Z,38.85
2023-05-04T18:37:42.120Z,39.01
2023-05-04T18:42:55.836Z,39.11
2023-05-04T18:45:27.863Z,39.79
2023-05-04T18:47:56.276Z,39.44
2023-05-04T18:50:24.360Z,39.50
2023-05-04T18:55:41.083Z,39.69
2023-05-04T18:58:08.684Z,40.00
2023-05-04T19:00:37.599Z,40.37
2023-05-04T19:03:05.180Z,39.93
2023-05-04T19:05:37.628Z,40.70
2023-05-04T19:08:08.845Z,40.31
2023-05-04T19:10:36.503Z,41.13
2023-05-04T19:13:04.496Z,40.80
2023-05-04T19:15:34.067Z,41.03
2023-05-04T19:18:03.168Z,40.87
2023-05-04T19:20:30.902Z,40.83
2023-05-04T19:22:59.213Z,41.11
2023-05-04T19:28:01.779Z,41.71
2023-05-04T19:30:31.649Z,41.99
2023-05-04T19:32:59.405Z,41.70
2023-05-04T19:35:28.498Z,42.24
2023-05-04T19:37:56.161Z,42.33
2023-05-04T19:40:23.826Z,42.39
2023-05-04T19:42:51.666Z,42.37
2023-05-04T19:45:19.414Z,41.86
2023-05-04T19:47:48.431Z,41.65
2023-05-04T19:50:16.605Z,41.97
2023-05-04T19:52:45.783Z,41.94
2023-05-04T19:55:13.486Z,42.29
2023-05-04T19:57:41.148Z,42.60
2023-05-04T20:00:10.411Z,42.68
2023-05-04T20:02:41.161Z,43.37
2023-05-04T20:05:09.300Z,43.35
2023-05-04T20:07:36.941Z,44.32
2023-05-04T20:10:06.948Z,44.13
2023-05-04T20:12:34.861Z,45.97
2023-05-04T20:15:02.749Z,45.74
2023-05-04T20:17:30.777Z,45.90
2023-05-04T20:19:58.865Z,46.05
2023-05-04T20:22:26.595Z,46.54
2023-05-04T20:24:54.297Z,46.50
2023-05-04T20:27:23.455Z,46.81
2023-05-04T20:29:52.121Z,47.24
2023-05-04T20:32:20.971Z,47.08
2023-05-04T20:34:48.797Z,46.90
2023-05-04T20:37:17.905Z,47.27
2023-05-04T20:39:47.225Z,47.46
2023-05-04T20:42:18.797Z,47.43
2023-05-04T20:44:48.198Z,47.90
2023-05-04T20:47:15.843Z,47.99
2023-05-04T20:49:43.624Z,48.26
2023-05-04T20:52:12.889Z,47.84
2023-05-04T20:54:40.558Z,47.96
2023-05-04T20:57:10.644Z,48.23
2023-05-04T20:59:38.587Z,48.75
2023-05-04T21:02:10.269Z,48.79
2023-05-04T21:04:37.930Z,48.68
2023-05-04T21:07:06.171Z,48.59
2023-05-04T21:09:34.223Z,48.66
2023-05-04T21:12:02.913Z,48.93
2023-05-04T21:14:30.732Z,49.15
2023-05-04T21:16:58.371Z,49.61
2023-05-04T21:19:27.469Z,49.75
2023-05-04T21:22:02.772Z,50.25
2023-05-04T21:24:32.072Z,49.76
2023-05-04T21:27:00.445Z,49.90
2023-05-04T21:29:28.146Z,50.61
2023-05-04T21:31:56.446Z,50.72
2023-05-04T21:34:24.838Z,50.73
2023-05-04T21:36:53.825Z,50.61
2023-05-04T21:39:23.062Z,50.61
2023-05-04T21:41:51.294Z,50.98
2023-05-04T21:44:18.913Z,50.75
2023-05-04T21:46:46.643Z,50.76
2023-05-04T21:49:14.359Z,51.45
2023-05-04T21:51:42.850Z,51.35
2023-05-04T21:54:11.857Z,51.26
2023-05-04T21:56:41.317Z,51.71
2023-05-04T21:59:08.939Z,52.06
2023-05-04T22:01:36.822Z,52.39
2023-05-04T22:04:06.744Z,52.74
2023-05-04T22:06:34.834Z,52.19
2023-05-04T22:09:02.917Z,52.08
2023-05-04T22:11:31.800Z,52.20
2023-05-04T22:13:59.447Z,52.91
2023-05-04T22:16:27.078Z,53.02
2023-05-04T22:18:54.801Z,53.22
2023-05-04T22:21:22.656Z,53.95
2023-05-04T22:23:50.565Z,53.32
2023-05-04T22:26:18.193Z,53.63
2023-05-04T22:28:47.126Z,53.57
2023-05-04T22:31:14.766Z,53.52
2023-05-04T22:33:42.610Z,53.76
2023-05-04T22:36:10.926Z,53.41
2023-05-04T22:38:38.505Z,54.03
2023-05-04T22:41:06.862Z,53.63
2023-05-04T22:43:34.457Z,53.29
2023-05-04T22:46:03.493Z,53.66
2023-05-04T22:48:32.386Z,54.06
2023-05-04T22:51:01.109Z,54.13
2023-05-04T22:53:28.681Z,53.61
2023-05-04T22:55:56.352Z,54.39
2023-05-04T22:58:23.930Z,53.73
2023-05-04T23:00:51.747Z,54.04
2023-05-04T23:03:20.822Z,53.72
2023-05-04T23:05:48.606Z,54.12
2023-05-04T23:08:16.228Z,53.92
2023-05-04T23:10:45.717Z,54.08
2023-05-04T23:13:13.571Z,53.53
2023-05-04T23:15:41.346Z,53.75
2023-05-04T23:18:09.098Z,53.40
2023-05-04T23:20:38.234Z,53.39
2023-05-04T23:23:06.167Z,52.77
2023-05-04T23:25:34.086Z,52.69
2023-05-04T23:28:02.723Z,52.97
2023-05-04T23:30:30.378Z,52.93
2023-05-04T23:32:58.472Z,53.04
2023-05-04T23:35:26.749Z,53.78
2023-05-04T23:37:55.733Z,53.97
2023-05-04T23:40:24.741Z,54.07
2023-05-04T23:42:52.330Z,54.10
2023-05-04T23:45:20.089Z,54.69
2023-05-04T23:47:47.716Z,54.61
2023-05-04T23:50:15.406Z,54.21
2023-05-04T23:52:43.030Z,54.87
2023-05-04T23:55:12.189Z,55.09
2023-05-04T23:57:39.939Z,54.19
